This is the latest recevied weather packets stored in our database for station/object K6CQU-13. If no packets are shown the sender has not sent any weather packets the latest 10 day(s).
| Time | Temp. | Humidity | Pressure | Rain* | Wind** | Luminosity | Snow |
|---|---|---|---|---|---|---|---|
| 1788099916 | 15.56° C | 81% | 1012.9 hPa | 0 mm | - | 98 W/m² | - |
| 1788099616 | 15° C | 80% | 1012.9 hPa | 0 mm | - | 85 W/m² | - |
| 1788099316 | 15° C | 80% | 1012.8 hPa | 0 mm | - | 70 W/m² | - |
| 1788099016 | 14.44° C | 80% | 1012.8 hPa | 0 mm | - | 56 W/m² | - |
| 1788098716 | 14.44° C | 81% | 1012.7 hPa | 0 mm | - | 46 W/m² | - |
| 1788098416 | 14.44° C | 82% | 1012.7 hPa | 0 mm | - | 31 W/m² | - |
| 1788098116 | 14.44° C | 84% | 1012.6 hPa | 0 mm | - | 13 W/m² | - |
| 1788097818 | 14.44° C | 84% | 1012.5 hPa | 0 mm | - | 11 W/m² | - |
| 1788097518 | 14.44° C | 83% | 1012.5 hPa | 0 mm | - | 8 W/m² | - |
| 1788097218 | 15° C | 82% | 1012.5 hPa | 0 mm | - | 5 W/m² | - |
| 1788096918 | 15° C | 82% | 1012.4 hPa | 0 mm | - | 2 W/m² | - |
| 1788096618 | 15° C | 81% | 1012.3 hPa | 0 mm | - | 0 W/m² | - |
| 1788096318 | 15° C | 81% | 1012.3 hPa | 0 mm | - | 0 W/m² | - |
| 1788096018 | 15° C | 79% | 1012.2 hPa | 0 mm | - | 0 W/m² | - |
| 1788095718 | 15° C | 79% | 1012.2 hPa | 0 mm | - | 0 W/m² | - |
| 1788095418 | 15.56° C | 78% | 1012.2 hPa | 0 mm | - | 0 W/m² | - |
| 1788095118 | 15.56° C | 77% | 1012.2 hPa | 0 mm | - | 0 W/m² | - |
| 1788094818 | 15.56° C | 76% | 1012.1 hPa | 0 mm | - | 0 W/m² | - |
| 1788094518 | 15.56° C | 75% | 1012 hPa | 0 mm | - | 0 W/m² | - |
| 1788094218 | 15.56° C | 74% | 1012 hPa | 0 mm | - | 0 W/m² | - |
| 1788093928 | 15.56° C | 74% | 1012 hPa | 0 mm | - | 0 W/m² | - |
| 1788093618 | 15.56° C | 73% | 1012 hPa | 0 mm | - | 0 W/m² | - |
| 1788093318 | 15.56° C | 70% | 1012 hPa | 0 mm | - | 0 W/m² | - |
| 1788093018 | 16.11° C | 69% | 1012 hPa | 0 mm | - | 0 W/m² | - |
| 1788092718 | 16.11° C | 68% | 1011.9 hPa | 0 mm | - | 0 W/m² | - |
* Rain latest hour (hover to see other rain measurements)
** Current wind speed in m/s (hover to see current wind gust speed)